Time;durP1;ratioP1;P1;durP2;ratioP2;P2;SDS_P1;SDS_P2;PMS_P1;PMS_P2;Temp;Humidity;BMP_temperature;BMP_pressure;BME280_temperature;BME280_humidity;BME280_pressure;Samples;Min_cycle;Max_cycle;Signal;HPM_P1;HPM_P2
2022/09/03 00:02:31;;;;;;;2.00;0.98;;;;;;;;;;5156580;27;20077;-57
2022/09/03 00:05:17;;;;;;;2.90;1.15;;;;;;;;;;5155986;27;20464;-57
2022/09/03 00:07:47;;;;;;;1.95;1.00;;;;;;;;;;5156181;27;20030;-57
2022/09/03 00:10:22;;;;;;;4.55;1.08;;;;;;;;;;5156108;27;20113;-57
2022/09/03 00:12:48;;;;;;;3.08;1.17;;;;;;;;;;5156466;27;20034;-57
2022/09/03 00:15:17;;;;;;;2.78;1.35;;;;;;;;;;5156097;27;20480;-57
2022/09/03 00:18:02;;;;;;;3.05;1.35;;;;;;;;;;5156547;27;20022;-57
2022/09/03 00:20:33;;;;;;;1.75;1.00;;;;;;;;;;5156228;27;20023;-57
2022/09/03 00:23:01;;;;;;;2.67;1.33;;;;;;;;;;5156426;27;20022;-57
2022/09/03 00:25:39;;;;;;;1.33;0.68;;;;;;;;;;5156212;27;20026;-57
2022/09/03 00:28:14;;;;;;;2.08;1.00;;;;;;;;;;5156451;27;20329;-57
2022/09/03 00:30:41;;;;;;;2.35;0.98;;;;;;;;;;5156127;27;20015;-57
2022/09/03 00:33:11;;;;;;;2.83;1.60;;;;;;;;;;5156174;27;20058;-57
2022/09/03 00:35:46;;;;;;;2.90;1.23;;;;;;;;;;5155715;27;20022;-57
2022/09/03 00:38:12;;;;;;;1.55;1.05;;;;;;;;;;5156265;27;20063;-57
2022/09/03 00:40:57;;;;;;;2.08;0.90;;;;;;;;;;5155679;27;20030;-57
2022/09/03 00:43:48;;;;;;;2.17;1.10;;;;;;;;;;5156238;27;20369;-57
2022/09/03 00:46:17;;;;;;;2.30;1.10;;;;;;;;;;5155798;27;20023;-57
2022/09/03 00:48:58;;;;;;;2.42;1.13;;;;;;;;;;5156139;27;20025;-57
2022/09/03 00:51:28;;;;;;;3.15;1.13;;;;;;;;;;5155728;27;20055;-57
2022/09/03 00:54:01;;;;;;;2.25;1.42;;;;;;;;;;5155655;27;20087;-57
2022/09/03 00:56:33;;;;;;;1.23;0.80;;;;;;;;;;5155764;27;20038;-57
2022/09/03 00:59:03;;;;;;;3.08;1.13;;;;;;;;;;5156108;27;20050;-57
2022/09/03 01:01:47;;;;;;;4.70;1.00;;;;;;;;;;5155690;27;20037;-57
2022/09/03 01:04:25;;;;;;;5.45;1.40;;;;;;;;;;5155511;27;20485;-57
2022/09/03 01:07:17;;;;;;;1.58;1.00;;;;;;;;;;5155771;27;20023;-57
2022/09/03 01:10:01;;;;;;;1.98;1.15;;;;;;;;;;5131530;27;20413;-57
2022/09/03 01:12:29;;;;;;;1.80;0.90;;;;;;;;;;5155957;27;20394;-57
2022/09/03 01:15:03;;;;;;;2.10;1.33;;;;;;;;;;5155982;27;20368;-57
2022/09/03 01:17:32;;;;;;;2.25;1.40;;;;;;;;;;5158262;27;20044;-57
2022/09/03 01:20:16;;;;;;;6.45;1.73;;;;;;;;;;5159538;27;20034;-57
2022/09/03 01:23:01;;;;;;;5.30;1.33;;;;;;;;;;5159431;27;20031;-57
2022/09/03 01:25:45;;;;;;;3.50;1.48;;;;;;;;;;5159993;27;20110;-57
2022/09/03 01:28:20;;;;;;;2.63;1.67;;;;;;;;;;5159831;27;20026;-57
2022/09/03 01:30:51;;;;;;;1.95;0.98;;;;;;;;;;5159349;27;20026;-57
2022/09/03 01:33:30;;;;;;;1.55;1.00;;;;;;;;;;5159099;27;20023;-57
2022/09/03 01:35:59;;;;;;;1.85;1.10;;;;;;;;;;5160060;27;20038;-57
2022/09/03 01:38:37;;;;;;;1.77;0.75;;;;;;;;;;5159483;27;20026;-57
2022/09/03 01:44:22;;;;;;;1.98;1.10;;;;;;;;;;5158866;27;20491;-57
2022/09/03 01:46:50;;;;;;;1.98;1.05;;;;;;;;;;5159191;27;20106;-57
2022/09/03 01:49:21;;;;;;;2.47;1.27;;;;;;;;;;5159273;27;20046;-57
2022/09/03 01:51:51;;;;;;;1.88;0.93;;;;;;;;;;5158808;27;20046;-57
2022/09/03 01:54:20;;;;;;;1.73;1.13;;;;;;;;;;5158882;27;20023;-57
2022/09/03 01:57:00;;;;;;;2.67;1.10;;;;;;;;;;5159441;27;20039;-57
2022/09/03 01:59:26;;;;;;;;;;;;;;;;;;5159300;27;20058;-57
2022/09/03 02:01:59;;;;;;;2.40;1.25;;;;;;;;;;5158681;27;20323;-57
2022/09/03 02:04:27;;;;;;;2.30;1.20;;;;;;;;;;5159059;27;20023;-57
2022/09/03 02:06:56;;;;;;;3.15;1.00;;;;;;;;;;5158877;27;20030;-57
2022/09/03 02:09:22;;;;;;;1.80;0.95;;;;;;;;;;5158553;27;20022;-57
2022/09/03 02:12:11;;;;;;;2.60;1.27;;;;;;;;;;5158542;27;20030;-57
2022/09/03 02:14:37;;;;;;;2.90;1.52;;;;;;;;;;5150263;27;20492;-57
2022/09/03 02:17:04;;;;;;;3.15;1.33;;;;;;;;;;5158469;27;20022;-57
2022/09/03 02:19:31;;;;;;;1.58;0.93;;;;;;;;;;5158986;27;20071;-57
2022/09/03 02:21:57;;;;;;;2.17;1.23;;;;;;;;;;5158267;27;20058;-57
2022/09/03 02:24:24;;;;;;;2.00;1.17;;;;;;;;;;5158351;27;20513;-57
2022/09/03 02:26:50;;;;;;;7.50;1.17;;;;;;;;;;5157979;27;20535;-57
2022/09/03 02:29:16;;;;;;;2.25;1.17;;;;;;;;;;5157300;27;20065;-57
2022/09/03 02:31:43;;;;;;;2.22;1.30;;;;;;;;;;5158448;27;20026;-57
2022/09/03 02:34:10;;;;;;;9.15;1.70;;;;;;;;;;5157914;27;20019;-57
2022/09/03 02:36:38;;;;;;;3.67;1.45;;;;;;;;;;5158558;27;20025;-57
2022/09/03 02:39:04;;;;;;;2.45;1.45;;;;;;;;;;5158052;27;20026;-57
2022/09/03 02:41:31;;;;;;;2.42;1.38;;;;;;;;;;5157906;27;20071;-57
2022/09/03 02:44:00;;;;;;;1.73;1.02;;;;;;;;;;5158019;27;20365;-57
2022/09/03 02:46:39;;;;;;;2.72;1.38;;;;;;;;;;5158332;27;20097;-57
2022/09/03 02:49:05;;;;;;;2.10;1.35;;;;;;;;;;5157851;27;20026;-57
2022/09/03 02:51:33;;;;;;;2.90;1.30;;;;;;;;;;5157742;27;20055;-57
2022/09/03 02:53:59;;;;;;;2.92;1.48;;;;;;;;;;5157945;27;20034;-57
2022/09/03 02:56:26;;;;;;;2.80;1.92;;;;;;;;;;5157999;27;20019;-57
2022/09/03 02:58:53;;;;;;;1.83;1.13;;;;;;;;;;5157588;27;20029;-57
2022/09/03 03:01:19;;;;;;;2.70;1.45;;;;;;;;;;5157494;27;20023;-57
2022/09/03 03:03:45;;;;;;;2.83;1.50;;;;;;;;;;5157658;27;20075;-57
2022/09/03 03:06:13;;;;;;;2.13;1.40;;;;;;;;;;5157715;27;20023;-57
2022/09/03 03:08:39;;;;;;;4.82;1.70;;;;;;;;;;5158193;27;20045;-57
2022/09/03 03:11:05;;;;;;;4.15;1.60;;;;;;;;;;5157446;27;20372;-57
2022/09/03 03:13:32;;;;;;;4.10;1.98;;;;;;;;;;5157313;27;20031;-57
2022/09/03 03:15:59;;;;;;;2.38;1.60;;;;;;;;;;5157262;27;20029;-57
2022/09/03 03:18:25;;;;;;;3.50;1.40;;;;;;;;;;5157783;27;20049;-57
2022/09/03 03:20:51;;;;;;;9.77;1.75;;;;;;;;;;5157482;27;20027;-57
2022/09/03 03:23:17;;;;;;;2.65;1.40;;;;;;;;;;5157139;27;20031;-57
2022/09/03 03:25:43;;;;;;;2.97;1.60;;;;;;;;;;5157101;27;20110;-57
2022/09/03 03:28:09;;;;;;;2.97;1.92;;;;;;;;;;5157325;27;20048;-57
2022/09/03 03:30:38;;;;;;;3.08;1.67;;;;;;;;;;5156936;27;20068;-57
2022/09/03 03:33:05;;;;;;;2.55;1.52;;;;;;;;;;5157030;27;20034;-57
2022/09/03 03:35:31;;;;;;;3.08;1.35;;;;;;;;;;5156659;27;20023;-58
2022/09/03 03:37:57;;;;;;;2.05;1.30;;;;;;;;;;5156572;27;20029;-58
2022/09/03 03:40:23;;;;;;;3.00;1.42;;;;;;;;;;5156797;27;20022;-58
2022/09/03 03:42:49;;;;;;;3.08;1.25;;;;;;;;;;5156756;27;20031;-58
2022/09/03 03:45:15;;;;;;;3.15;1.60;;;;;;;;;;5156697;27;20026;-58
2022/09/03 03:47:41;;;;;;;3.85;1.70;;;;;;;;;;5156347;27;20063;-58
2022/09/03 03:50:07;;;;;;;2.17;1.52;;;;;;;;;;5156687;27;20019;-58
2022/09/03 03:52:34;;;;;;;2.30;1.50;;;;;;;;;;5156657;27;20051;-58
2022/09/03 03:54:59;;;;;;;1.92;1.30;;;;;;;;;;5156563;27;20023;-58
2022/09/03 03:57:25;;;;;;;2.67;1.55;;;;;;;;;;5156560;27;20042;-58
2022/09/03 03:59:51;;;;;;;2.55;1.60;;;;;;;;;;5156158;27;20022;-58
2022/09/03 04:02:17;;;;;;;2.53;1.95;;;;;;;;;;5156575;27;20026;-57
2022/09/03 04:04:43;;;;;;;2.35;1.33;;;;;;;;;;5156700;27;20365;-58
2022/09/03 04:07:09;;;;;;;2.70;1.48;;;;;;;;;;5156634;27;20027;-58
2022/09/03 04:09:36;;;;;;;5.05;2.08;;;;;;;;;;5156347;27;20030;-58
2022/09/03 04:12:02;;;;;;;2.17;1.38;;;;;;;;;;5157086;27;20329;-58
2022/09/03 04:14:28;;;;;;;2.63;1.75;;;;;;;;;;5156725;27;20057;-58
2022/09/03 04:16:55;;;;;;;3.03;1.88;;;;;;;;;;5156199;27;20102;-58
2022/09/03 04:19:22;;;;;;;2.20;1.45;;;;;;;;;;5156389;27;20067;-58
2022/09/03 04:21:48;;;;;;;2.58;1.65;;;;;;;;;;5156254;27;20037;-58
2022/09/03 04:24:14;;;;;;;1.70;1.10;;;;;;;;;;5156408;27;20105;-58
2022/09/03 04:26:40;;;;;;;4.60;2.28;;;;;;;;;;5156273;27;20025;-58
2022/09/03 04:29:07;;;;;;;2.90;1.95;;;;;;;;;;5156469;27;20019;-58
2022/09/03 04:31:34;;;;;;;3.95;1.77;;;;;;;;;;5156468;27;20050;-58
2022/09/03 04:34:00;;;;;;;3.03;1.58;;;;;;;;;;5156490;27;20416;-58
2022/09/03 04:36:28;;;;;;;2.55;1.50;;;;;;;;;;5156452;27;20337;-58
2022/09/03 04:38:54;;;;;;;4.93;2.00;;;;;;;;;;5155541;27;20074;-58
2022/09/03 04:41:23;;;;;;;3.67;1.95;;;;;;;;;;5155739;27;20022;-58
2022/09/03 04:43:50;;;;;;;2.10;1.42;;;;;;;;;;5156077;27;20031;-58
2022/09/03 04:46:16;;;;;;;2.50;1.45;;;;;;;;;;5155602;27;20425;-58
2022/09/03 04:48:42;;;;;;;2.42;1.80;;;;;;;;;;5155744;27;20061;-58
2022/09/03 04:51:10;;;;;;;3.00;1.50;;;;;;;;;;5155588;27;20062;-58
2022/09/03 04:53:37;;;;;;;3.38;2.25;;;;;;;;;;5156474;27;20054;-58
2022/09/03 04:56:03;;;;;;;2.88;1.73;;;;;;;;;;5155699;27;20521;-58
2022/09/03 04:58:30;;;;;;;4.05;1.73;;;;;;;;;;5155617;27;20082;-58
2022/09/03 05:00:56;;;;;;;3.38;1.73;;;;;;;;;;5155809;27;20471;-58
2022/09/03 05:03:22;;;;;;;2.33;1.60;;;;;;;;;;5155831;27;20119;-58
2022/09/03 05:05:52;;;;;;;3.05;1.65;;;;;;;;;;5156005;27;20056;-58
2022/09/03 05:08:18;;;;;;;3.55;2.00;;;;;;;;;;5155488;27;20069;-58
2022/09/03 05:10:44;;;;;;;3.92;1.80;;;;;;;;;;5155541;27;20051;-58
2022/09/03 05:13:10;;;;;;;5.35;1.50;;;;;;;;;;5155509;27;20031;-58
2022/09/03 05:15:36;;;;;;;4.40;2.22;;;;;;;;;;5155458;27;20023;-58
2022/09/03 05:18:02;;;;;;;2.75;2.03;;;;;;;;;;5155917;27;20490;-58
2022/09/03 05:20:29;;;;;;;2.88;1.95;;;;;;;;;;5155934;27;20033;-58
2022/09/03 05:23:01;;;;;;;2.95;1.90;;;;;;;;;;5155624;27;20019;-58
2022/09/03 05:25:26;;;;;;;2.60;1.55;;;;;;;;;;5155868;27;20086;-58
2022/09/03 05:27:53;;;;;;;2.28;1.58;;;;;;;;;;5155350;27;20015;-58
2022/09/03 05:30:21;;;;;;;3.00;1.75;;;;;;;;;;5155508;27;20023;-58
2022/09/03 05:32:47;;;;;;;2.33;1.48;;;;;;;;;;5155215;27;20468;-58
2022/09/03 05:35:13;;;;;;;2.97;2.03;;;;;;;;;;5155517;27;20023;-58
2022/09/03 05:37:40;;;;;;;4.25;2.30;;;;;;;;;;5155975;27;20019;-58
2022/09/03 05:40:07;;;;;;;4.72;1.92;;;;;;;;;;5155225;27;20090;-58
2022/09/03 05:42:37;;;;;;;4.03;1.80;;;;;;;;;;5155295;27;20023;-58
2022/09/03 05:45:08;;;;;;;2.00;1.30;;;;;;;;;;5155167;27;20033;-58
2022/09/03 05:47:34;;;;;;;2.97;1.88;;;;;;;;;;5154997;27;20034;-58
2022/09/03 05:50:00;;;;;;;3.88;1.80;;;;;;;;;;5155621;27;20019;-58
2022/09/03 05:52:26;;;;;;;2.58;1.98;;;;;;;;;;5155411;27;20057;-58
2022/09/03 05:54:52;;;;;;;2.65;1.52;;;;;;;;;;5154910;27;20018;-58
2022/09/03 05:57:18;;;;;;;3.13;1.90;;;;;;;;;;5155342;27;20029;-58
2022/09/03 05:59:44;;;;;;;3.03;1.83;;;;;;;;;;5154723;27;20022;-58
2022/09/03 06:02:10;;;;;;;3.13;2.20;;;;;;;;;;5154581;27;20023;-58
2022/09/03 06:04:36;;;;;;;2.78;1.98;;;;;;;;;;5157607;27;20027;-58
2022/09/03 06:07:02;;;;;;;4.80;2.03;;;;;;;;;;5158756;27;20460;-58
2022/09/03 06:09:28;;;;;;;2.67;1.70;;;;;;;;;;5159495;27;20018;-58
2022/09/03 06:11:54;;;;;;;4.97;2.42;;;;;;;;;;5159178;27;20109;-58
2022/09/03 06:14:21;;;;;;;2.63;2.08;;;;;;;;;;5158846;27;20451;-58
2022/09/03 06:16:48;;;;;;;5.80;1.75;;;;;;;;;;5158477;27;20141;-58
2022/09/03 06:19:14;;;;;;;4.75;2.20;;;;;;;;;;5158430;27;20421;-58
2022/09/03 06:21:41;;;;;;;4.55;1.90;;;;;;;;;;5158964;27;20034;-58
2022/09/03 06:24:18;;;;;;;2.50;1.77;;;;;;;;;;5158452;27;20035;-58
2022/09/03 06:26:45;;;;;;;3.13;2.28;;;;;;;;;;5158324;27;20023;-58
2022/09/03 06:29:11;;;;;;;3.65;2.60;;;;;;;;;;5158750;27;20038;-58
2022/09/03 06:31:38;;;;;;;5.72;2.97;;;;;;;;;;5158241;27;20027;-58
2022/09/03 06:34:04;;;;;;;6.00;2.50;;;;;;;;;;5159100;27;20019;-58
2022/09/03 06:36:31;;;;;;;3.15;2.45;;;;;;;;;;5158666;27;20110;-58
2022/09/03 06:38:57;;;;;;;3.70;2.30;;;;;;;;;;5158117;27;20487;-58
2022/09/03 06:41:28;;;;;;;6.00;2.55;;;;;;;;;;5158245;27;20042;-58
2022/09/03 06:44:01;;;;;;;3.35;1.95;;;;;;;;;;5158534;27;20109;-58
2022/09/03 06:46:28;;;;;;;5.30;2.85;;;;;;;;;;5157859;27;20035;-58
2022/09/03 06:48:54;;;;;;;2.83;2.30;;;;;;;;;;5158158;27;20019;-58
2022/09/03 06:51:21;;;;;;;3.00;2.10;;;;;;;;;;5157888;27;20041;-58
2022/09/03 06:53:51;;;;;;;3.85;2.47;;;;;;;;;;5157730;27;20027;-58
2022/09/03 06:56:18;;;;;;;2.92;2.10;;;;;;;;;;5157685;27;20018;-58
2022/09/03 06:58:45;;;;;;;3.42;2.40;;;;;;;;;;5157713;27;20067;-58
2022/09/03 07:01:15;;;;;;;3.10;2.05;;;;;;;;;;5157689;27;20098;-58
2022/09/03 07:03:42;;;;;;;5.50;2.40;;;;;;;;;;5157715;27;20464;-58
2022/09/03 07:06:09;;;;;;;3.45;2.30;;;;;;;;;;5157570;27;20033;-58
2022/09/03 07:08:35;;;;;;;3.33;2.38;;;;;;;;;;5157519;27;20022;-58
2022/09/03 07:11:04;;;;;;;3.67;2.80;;;;;;;;;;5157474;27;20027;-58
2022/09/03 07:13:31;;;;;;;3.17;2.30;;;;;;;;;;5157934;27;20341;-58
2022/09/03 07:16:01;;;;;;;5.72;2.97;;;;;;;;;;5157706;27;20067;-58
2022/09/03 07:18:27;;;;;;;4.85;2.47;;;;;;;;;;5157272;27;20054;-58
2022/09/03 07:20:57;;;;;;;4.35;2.67;;;;;;;;;;5157323;27;20059;-58
2022/09/03 07:23:23;;;;;;;3.28;2.50;;;;;;;;;;5157834;27;20027;-58
2022/09/03 07:26:03;;;;;;;3.13;2.50;;;;;;;;;;5157706;27;20031;-58
2022/09/03 07:28:31;;;;;;;3.05;2.17;;;;;;;;;;5157123;27;20067;-58
2022/09/03 07:31:01;;;;;;;5.68;2.72;;;;;;;;;;5156967;27;20035;-58
2022/09/03 07:33:28;;;;;;;8.07;2.80;;;;;;;;;;5157105;27;20026;-58
2022/09/03 07:35:54;;;;;;;4.80;2.78;;;;;;;;;;5156924;27;20029;-58
2022/09/03 07:38:22;;;;;;;5.30;3.10;;;;;;;;;;5156866;27;20027;-58
2022/09/03 07:40:48;;;;;;;4.40;2.42;;;;;;;;;;5157619;27;20074;-58
2022/09/03 07:43:14;;;;;;;4.07;2.88;;;;;;;;;;5157354;27;20034;-58
2022/09/03 07:45:40;;;;;;;4.05;2.65;;;;;;;;;;5157090;27;20026;-58
2022/09/03 07:48:06;;;;;;;3.45;2.45;;;;;;;;;;5157195;27;20019;-58
2022/09/03 07:50:37;;;;;;;3.78;2.65;;;;;;;;;;5156744;27;20023;-58
2022/09/03 07:53:03;;;;;;;4.15;2.63;;;;;;;;;;5156562;27;20034;-58
2022/09/03 07:55:30;;;;;;;5.82;2.70;;;;;;;;;;5156828;27;20071;-58
2022/09/03 07:57:57;;;;;;;4.30;2.92;;;;;;;;;;5156872;27;20023;-58
2022/09/03 08:00:23;;;;;;;6.88;2.67;;;;;;;;;;5157214;27;20507;-58
2022/09/03 08:02:50;;;;;;;5.97;3.30;;;;;;;;;;5156961;27;20110;-58
2022/09/03 08:05:19;;;;;;;3.17;2.60;;;;;;;;;;5156441;27;20472;-58
2022/09/03 08:07:45;;;;;;;4.40;3.15;;;;;;;;;;5156287;27;20034;-58
2022/09/03 08:10:11;;;;;;;4.03;3.25;;;;;;;;;;5156779;27;20046;-58
2022/09/03 08:12:37;;;;;;;3.85;3.25;;;;;;;;;;5156299;27;20121;-58
2022/09/03 08:15:04;;;;;;;3.03;2.58;;;;;;;;;;5156295;27;20440;-58
2022/09/03 08:17:30;;;;;;;3.58;2.90;;;;;;;;;;5156144;27;20101;-58
2022/09/03 08:19:57;;;;;;;4.15;3.42;;;;;;;;;;5156627;27;20057;-58
2022/09/03 08:22:24;;;;;;;3.33;2.85;;;;;;;;;;5155994;27;20039;-58
2022/09/03 08:24:53;;;;;;;3.90;3.50;;;;;;;;;;5156716;27;20034;-58
2022/09/03 08:27:24;;;;;;;3.88;3.17;;;;;;;;;;5155527;27;20063;-58
2022/09/03 08:29:50;;;;;;;4.03;2.75;;;;;;;;;;5155971;27;20026;-58
2022/09/03 08:32:16;;;;;;;3.85;2.60;;;;;;;;;;5156213;27;20023;-58
2022/09/03 08:34:42;;;;;;;7.03;3.08;;;;;;;;;;5156239;27;20054;-58
2022/09/03 08:37:09;;;;;;;3.25;2.58;;;;;;;;;;5155858;27;20019;-58
2022/09/03 08:39:35;;;;;;;6.40;3.10;;;;;;;;;;5155787;27;20019;-58
2022/09/03 08:42:09;;;;;;;4.03;2.75;;;;;;;;;;5155611;27;20105;-58
2022/09/03 08:44:47;;;;;;;4.75;3.10;;;;;;;;;;5156153;27;20026;-58
2022/09/03 08:47:31;;;;;;;5.20;2.67;;;;;;;;;;5155672;27;20417;-58
2022/09/03 08:50:01;;;;;;;3.72;2.40;;;;;;;;;;5155676;27;20380;-58
2022/09/03 08:52:31;;;;;;;3.40;2.45;;;;;;;;;;5155220;27;20053;-58
2022/09/03 08:55:09;;;;;;;3.65;2.95;;;;;;;;;;5155880;27;20041;-58
2022/09/03 08:57:40;;;;;;;3.58;2.60;;;;;;;;;;5155576;27;20056;-58
2022/09/03 09:00:05;;;;;;;;;;;;;;;;;;5156364;27;20424;-58
2022/09/03 09:02:44;;;;;;;5.13;2.65;;;;;;;;;;5155406;27;19962;-58
2022/09/03 09:05:10;;;;;;;4.07;2.70;;;;;;;;;;5155560;27;20030;-58
2022/09/03 09:07:47;;;;;;;3.00;2.38;;;;;;;;;;5155442;27;20102;-58
2022/09/03 09:10:22;;;;;;;4.25;2.65;;;;;;;;;;5155824;27;20054;-58
2022/09/03 09:12:48;;;;;;;4.03;2.80;;;;;;;;;;5156298;27;20030;-58
2022/09/03 09:15:30;;;;;;;4.65;2.80;;;;;;;;;;5155685;27;20019;-58
2022/09/03 09:17:56;;;;;;;3.42;2.45;;;;;;;;;;5155435;27;20372;-58
2022/09/03 09:20:31;;;;;;;2.60;1.90;;;;;;;;;;5155691;27;20026;-58
2022/09/03 09:23:02;;;;;;;3.85;2.22;;;;;;;;;;5155315;27;20535;-58
2022/09/03 09:25:30;;;;;;;3.45;2.60;;;;;;;;;;5155569;27;20035;-58
2022/09/03 09:28:11;;;;;;;3.35;2.70;;;;;;;;;;5155130;27;20027;-58
2022/09/03 09:30:37;;;;;;;4.03;2.50;;;;;;;;;;5155073;27;20473;-58
2022/09/03 09:33:03;;;;;;;3.03;2.30;;;;;;;;;;5155630;27;20066;-58
2022/09/03 09:35:29;;;;;;;2.50;2.00;;;;;;;;;;5154838;27;20598;-58
2022/09/03 09:37:57;;;;;;;4.75;2.38;;;;;;;;;;5156243;27;20027;-58
2022/09/03 09:40:24;;;;;;;3.22;2.45;;;;;;;;;;5160025;27;20019;-58
2022/09/03 09:42:50;;;;;;;4.05;2.92;;;;;;;;;;5158994;27;20039;-58
2022/09/03 09:45:16;;;;;;;3.10;2.38;;;;;;;;;;5158120;27;20464;-58
2022/09/03 09:47:42;;;;;;;4.40;2.78;;;;;;;;;;5157908;27;20033;-58
2022/09/03 09:50:16;;;;;;;3.50;2.58;;;;;;;;;;5159365;27;20452;-59
2022/09/03 09:52:44;;;;;;;4.15;2.60;;;;;;;;;;5159907;27;20459;-58
2022/09/03 09:55:15;;;;;;;3.25;2.80;;;;;;;;;;5159761;27;20018;-58
2022/09/03 09:57:40;;;;;;;;;;;;;;;;;;5159715;27;20026;-58
2022/09/03 10:00:11;;;;;;;4.45;3.30;;;;;;;;;;5159618;27;19903;-58
2022/09/03 10:02:41;;;;;;;4.72;3.33;;;;;;;;;;5159589;27;20360;-58
2022/09/03 10:05:13;;;;;;;3.35;2.65;;;;;;;;;;5159321;27;20023;-58
2022/09/03 10:07:39;;;;;;;3.80;2.67;;;;;;;;;;5159038;27;20030;-58
2022/09/03 10:10:05;;;;;;;3.38;2.90;;;;;;;;;;5158731;27;20027;-58
2022/09/03 10:12:36;;;;;;;4.25;2.67;;;;;;;;;;5158885;27;20030;-58
2022/09/03 10:15:08;;;;;;;3.78;3.10;;;;;;;;;;5158606;27;20025;-58
2022/09/03 10:17:49;;;;;;;3.50;3.00;;;;;;;;;;5158561;27;20014;-58
2022/09/03 10:20:30;;;;;;;4.75;3.22;;;;;;;;;;5159084;27;20011;-58
2022/09/03 10:23:16;;;;;;;3.72;3.15;;;;;;;;;;5158650;27;20034;-58
2022/09/03 10:25:49;;;;;;;5.32;3.03;;;;;;;;;;5157973;27;20058;-58
2022/09/03 10:28:15;;;;;;;4.80;3.45;;;;;;;;;;5158588;27;20102;-58
2022/09/03 10:30:59;;;;;;;3.75;3.28;;;;;;;;;;5158466;27;20022;-58
2022/09/03 10:33:35;;;;;;;4.60;3.55;;;;;;;;;;5158861;27;20356;-58
2022/09/03 10:36:25;;;;;;;3.30;2.88;;;;;;;;;;5158198;27;20113;-58
2022/09/03 10:39:01;;;;;;;5.03;3.28;;;;;;;;;;5150324;27;20070;-58
2022/09/03 10:41:30;;;;;;;4.35;3.38;;;;;;;;;;5157865;27;20027;-58
2022/09/03 10:44:05;;;;;;;4.25;3.70;;;;;;;;;;5158365;27;20472;-58
2022/09/03 10:46:43;;;;;;;3.35;2.95;;;;;;;;;;5158495;27;20023;-58
2022/09/03 10:49:12;;;;;;;5.20;3.50;;;;;;;;;;5157700;27;20019;-58
2022/09/03 10:51:39;;;;;;;4.73;3.50;;;;;;;;;;5157765;27;20042;-59
2022/09/03 10:54:23;;;;;;;3.58;3.10;;;;;;;;;;5158085;27;20409;-58
2022/09/03 10:56:58;;;;;;;5.38;3.50;;;;;;;;;;5157842;27;20162;-58
2022/09/03 10:59:32;;;;;;;3.65;3.25;;;;;;;;;;5157734;27;20019;-58
2022/09/03 11:02:15;;;;;;;5.35;3.45;;;;;;;;;;5157971;27;20409;-58
2022/09/03 11:04:53;;;;;;;4.05;2.97;;;;;;;;;;5156847;27;20551;-58
2022/09/03 11:07:25;;;;;;;4.10;2.80;;;;;;;;;;5158154;27;20052;-58
2022/09/03 11:10:17;;;;;;;3.90;3.30;;;;;;;;;;5158096;27;20026;-58
2022/09/03 11:13:07;;;;;;;4.13;3.30;;;;;;;;;;5133332;27;20043;-58
2022/09/03 11:15:46;;;;;;;4.72;3.78;;;;;;;;;;5149350;27;20472;-58
2022/09/03 11:18:12;;;;;;;3.88;2.67;;;;;;;;;;5157706;27;20027;-58
2022/09/03 11:20:40;;;;;;;7.40;3.58;;;;;;;;;;5156863;27;20410;-58
2022/09/03 11:23:07;;;;;;;3.75;2.85;;;;;;;;;;5157718;27;20031;-58
2022/09/03 11:25:50;;;;;;;3.40;3.10;;;;;;;;;;5157011;27;20023;-58
2022/09/03 11:28:18;;;;;;;4.28;3.40;;;;;;;;;;5157101;27;20029;-58
2022/09/03 11:31:02;;;;;;;3.63;3.00;;;;;;;;;;5157599;27;20049;-58
2022/09/03 11:33:29;;;;;;;3.10;2.35;;;;;;;;;;5157574;27;20380;-58
2022/09/03 11:35:56;;;;;;;5.63;3.75;;;;;;;;;;5156754;27;20463;-58
2022/09/03 11:38:26;;;;;;;4.65;3.33;;;;;;;;;;5157487;27;20022;-58
2022/09/03 11:41:21;;;;;;;4.40;3.10;;;;;;;;;;5156862;27;20025;-58
2022/09/03 11:43:47;;;;;;;3.15;2.85;;;;;;;;;;5142872;27;20052;-58
2022/09/03 11:46:26;;;;;;;3.45;3.00;;;;;;;;;;5156755;27;20046;-58
2022/09/03 11:48:56;;;;;;;3.67;3.08;;;;;;;;;;5156766;27;20054;-58
2022/09/03 11:51:32;;;;;;;3.55;2.78;;;;;;;;;;5157019;27;20121;-58
2022/09/03 11:54:03;;;;;;;3.60;3.05;;;;;;;;;;5156474;27;20068;-58
2022/09/03 11:56:30;;;;;;;4.32;2.60;;;;;;;;;;5156405;27;20033;-58
2022/09/03 11:59:03;;;;;;;3.58;2.72;;;;;;;;;;5156456;27;20019;-58
2022/09/03 12:01:30;;;;;;;4.90;2.80;;;;;;;;;;5156193;27;20023;-58
2022/09/03 12:04:04;;;;;;;4.00;3.45;;;;;;;;;;5157036;27;20109;-59
2022/09/03 12:06:30;;;;;;;4.15;3.50;;;;;;;;;;5156565;27;20050;-58
2022/09/03 12:09:05;;;;;;;5.15;3.47;;;;;;;;;;5156340;27;20054;-58
2022/09/03 12:11:31;;;;;;;4.05;3.33;;;;;;;;;;5156272;27;20376;-58
2022/09/03 12:14:06;;;;;;;4.55;3.63;;;;;;;;;;5156885;27;20021;-58
2022/09/03 12:16:32;;;;;;;4.35;3.20;;;;;;;;;;5156217;27;20026;-59
2022/09/03 12:19:03;;;;;;;5.82;4.03;;;;;;;;;;5155948;27;20023;-58
2022/09/03 12:21:29;;;;;;;8.02;3.70;;;;;;;;;;5156838;27;20026;-58
2022/09/03 12:23:55;;;;;;;6.07;4.95;;;;;;;;;;5156042;27;20111;-58
2022/09/03 12:26:23;;;;;;;3.65;2.70;;;;;;;;;;5155969;27;20046;-58
2022/09/03 12:28:54;;;;;;;2.50;1.95;;;;;;;;;;5156751;27;20023;-58
2022/09/03 12:31:21;;;;;;;6.00;1.40;;;;;;;;;;5156263;27;20075;-58
2022/09/03 12:33:57;;;;;;;1.65;1.00;;;;;;;;;;5156100;27;20508;-59
2022/09/03 12:36:24;;;;;;;1.10;0.60;;;;;;;;;;5155885;27;20037;-58
2022/09/03 12:38:50;;;;;;;2.10;0.98;;;;;;;;;;5156417;27;20019;-58
2022/09/03 12:41:20;;;;;;;2.08;1.05;;;;;;;;;;5155833;27;20417;-58
2022/09/03 12:43:53;;;;;;;2.30;1.27;;;;;;;;;;5155778;27;20026;-59
2022/09/03 12:46:23;;;;;;;1.67;0.90;;;;;;;;;;5155600;27;20038;-59
2022/09/03 12:48:52;;;;;;;1.93;0.90;;;;;;;;;;5156264;27;20011;-59
2022/09/03 12:51:18;;;;;;;2.88;1.40;;;;;;;;;;5155905;27;20046;-59
2022/09/03 12:53:45;;;;;;;2.33;1.70;;;;;;;;;;5155952;27;20034;-59
2022/09/03 12:56:12;;;;;;;3.88;1.48;;;;;;;;;;5155647;27;20026;-59
2022/09/03 12:58:54;;;;;;;3.60;1.33;;;;;;;;;;5155864;27;20429;-59
2022/09/03 13:01:23;;;;;;;2.13;1.30;;;;;;;;;;5156383;27;20073;-59
2022/09/03 13:03:53;;;;;;;2.38;0.95;;;;;;;;;;5155565;27;20023;-59
2022/09/03 13:06:24;;;;;;;3.78;1.50;;;;;;;;;;5156396;27;20082;-59
2022/09/03 13:08:51;;;;;;;3.00;1.42;;;;;;;;;;5155959;27;20027;-59
2022/09/03 13:11:21;;;;;;;1.95;1.25;;;;;;;;;;5155436;27;20568;-59
2022/09/03 13:13:55;;;;;;;4.05;1.67;;;;;;;;;;5159077;27;20030;-59
2022/09/03 13:16:40;;;;;;;5.35;1.85;;;;;;;;;;5159752;27;20019;-59
2022/09/03 13:19:24;;;;;;;3.25;2.05;;;;;;;;;;5160306;27;20031;-59
2022/09/03 13:22:10;;;;;;;4.00;1.20;;;;;;;;;;5160103;27;20439;-59
2022/09/03 13:24:54;;;;;;;2.83;1.67;;;;;;;;;;5159943;27;20105;-59
2022/09/03 13:27:28;;;;;;;2.88;1.58;;;;;;;;;;5159817;27;20026;-59
2022/09/03 13:29:57;;;;;;;5.40;1.55;;;;;;;;;;5159584;27;20097;-59
2022/09/03 13:32:39;;;;;;;2.90;1.17;;;;;;;;;;5159378;27;20106;-59
2022/09/03 13:35:17;;;;;;;2.65;1.83;;;;;;;;;;5159449;27;20031;-59
2022/09/03 13:37:45;;;;;;;6.35;2.80;;;;;;;;;;5159390;27;20066;-59
2022/09/03 13:40:17;;;;;;;8.60;3.15;;;;;;;;;;5159229;27;20023;-59
2022/09/03 13:42:47;;;;;;;3.25;2.40;;;;;;;;;;5159230;27;20038;-59
2022/09/03 13:45:17;;;;;;;2.67;1.48;;;;;;;;;;5159358;27;20031;-59
2022/09/03 13:50:34;;;;;;;2.10;1.13;;;;;;;;;;5159282;27;20099;-59
2022/09/03 13:53:17;;;;;;;2.72;1.00;;;;;;;;;;5159942;27;20019;-59
2022/09/03 13:55:49;;;;;;;1.80;1.15;;;;;;;;;;5159362;27;20496;-59
2022/09/03 13:58:28;;;;;;;2.40;1.23;;;;;;;;;;5159228;27;20102;-59
2022/09/03 14:01:00;;;;;;;3.42;1.58;;;;;;;;;;5159520;27;20460;-59
2022/09/03 14:03:41;;;;;;;2.10;1.00;;;;;;;;;;5159146;27;20061;-59
2022/09/03 14:06:11;;;;;;;2.05;1.25;;;;;;;;;;5158852;27;20042;-59
2022/09/03 14:08:47;;;;;;;;;;;;;;;;;;5159129;27;20019;-59
2022/09/03 14:11:22;;;;;;;6.15;1.45;;;;;;;;;;5158668;27;20001;-59
2022/09/03 14:13:54;;;;;;;2.50;1.27;;;;;;;;;;5158979;27;20027;-58
2022/09/03 14:16:27;;;;;;;4.18;2.20;;;;;;;;;;5158563;27;20483;-59
2022/09/03 14:19:02;;;;;;;2.30;1.23;;;;;;;;;;5159061;27;20034;-59
2022/09/03 14:21:30;;;;;;;2.53;1.48;;;;;;;;;;5158076;27;20487;-59
2022/09/03 14:24:04;;;;;;;3.30;1.42;;;;;;;;;;5157797;27;20030;-59
2022/09/03 14:26:31;;;;;;;3.47;1.25;;;;;;;;;;5158857;27;20126;-59
2022/09/03 14:28:59;;;;;;;3.28;1.45;;;;;;;;;;5158504;27;20023;-59
2022/09/03 14:31:41;;;;;;;2.08;1.30;;;;;;;;;;5158793;27;20486;-59
2022/09/03 14:34:14;;;;;;;1.85;0.95;;;;;;;;;;5158565;27;20045;-59
2022/09/03 14:36:48;;;;;;;2.67;1.42;;;;;;;;;;5158827;27;20034;-59
2022/09/03 14:39:23;;;;;;;2.30;1.08;;;;;;;;;;5158734;27;20029;-59
2022/09/03 14:41:56;;;;;;;1.95;0.88;;;;;;;;;;5158029;27;20023;-59
2022/09/03 14:44:38;;;;;;;2.03;0.77;;;;;;;;;;5158127;27;20039;-59
2022/09/03 14:47:06;;;;;;;2.05;1.23;;;;;;;;;;5158146;27;20047;-59
2022/09/03 14:49:44;;;;;;;1.45;0.70;;;;;;;;;;5157671;27;20480;-59
2022/09/03 14:52:10;;;;;;;1.42;0.80;;;;;;;;;;5158438;27;20057;-59
2022/09/03 14:54:36;;;;;;;2.28;1.10;;;;;;;;;;5157844;27;20023;-59
2022/09/03 14:57:02;;;;;;;3.75;1.00;;;;;;;;;;5158320;27;20027;-59
2022/09/03 14:59:34;;;;;;;2.70;0.88;;;;;;;;;;5157676;27;20026;-59
2022/09/03 15:02:10;;;;;;;2.47;0.90;;;;;;;;;;5157627;27;20027;-59
2022/09/03 15:04:39;;;;;;;2.22;0.60;;;;;;;;;;5157768;27;20040;-59
2022/09/03 15:07:16;;;;;;;3.35;1.10;;;;;;;;;;5158103;27;20402;-59
2022/09/03 15:09:47;;;;;;;2.05;0.95;;;;;;;;;;5158086;27;20019;-59